Time;durP1;ratioP1;P1;durP2;ratioP2;P2;SDS_P1;SDS_P2;PMS_P1;PMS_P2;Temp;Humidity;BMP_temperature;BMP_pressure;BME280_temperature;BME280_humidity;BME280_pressure;Samples;Min_cycle;Max_cycle;Signal;HPM_P1;HPM_P2
2021/04/17 00:01:54;;;;;;;9.90;5.67;;;4.60;85.10;;;;;;5114334;28;20309;-66
2021/04/17 00:04:22;;;;;;;12.70;5.53;;;4.60;85.40;;;;;;5114205;28;20317;-67
2021/04/17 00:06:48;;;;;;;12.23;6.03;;;4.50;85.40;;;;;;5114482;28;20399;-66
2021/04/17 00:09:16;;;;;;;12.13;5.63;;;4.50;85.40;;;;;;5113617;28;20301;-67
2021/04/17 00:11:44;;;;;;;13.80;6.20;;;4.50;85.40;;;;;;5114171;28;20658;-67
2021/04/17 00:14:15;;;;;;;15.13;5.77;;;4.50;85.70;;;;;;5114241;28;20297;-67
2021/04/17 00:16:41;;;;;;;16.00;6.17;;;4.50;85.80;;;;;;5113881;27;20455;-66
2021/04/17 00:19:06;;;;;;;17.37;6.50;;;4.50;86.10;;;;;;5114473;28;20297;-66
2021/04/17 00:21:32;;;;;;;10.13;5.60;;;4.50;86.10;;;;;;5114410;28;20342;-66
2021/04/17 00:23:59;;;;;;;11.93;5.93;;;4.50;86.30;;;;;;5112857;28;20420;-67
2021/04/17 00:26:25;;;;;;;12.30;5.50;;;4.50;86.30;;;;;;5114328;28;20305;-67
2021/04/17 00:28:51;;;;;;;8.70;5.50;;;4.50;86.60;;;;;;5113808;28;20305;-66
2021/04/17 00:31:17;;;;;;;11.87;6.07;;;4.50;86.90;;;;;;5113408;28;20047;-67
2021/04/17 00:33:43;;;;;;;14.00;5.10;;;4.50;86.60;;;;;;5113919;28;20047;-67
2021/04/17 00:36:08;;;;;;;11.47;5.70;;;4.50;87.10;;;;;;5113860;28;20329;-67
2021/04/17 00:38:34;;;;;;;12.97;6.20;;;4.50;87.10;;;;;;5113331;28;20040;-67
2021/04/17 00:41:00;;;;;;;11.07;5.47;;;4.50;86.80;;;;;;5113464;28;20298;-67
2021/04/17 00:43:28;;;;;;;8.00;5.00;;;4.50;87.10;;;;;;5113894;28;20066;-66
2021/04/17 00:45:53;;;;;;;14.47;5.53;;;4.50;87.10;;;;;;5113043;28;20055;-67
2021/04/17 00:48:19;;;;;;;17.10;5.40;;;4.50;87.10;;;;;;5113719;28;20716;-66
2021/04/17 00:50:45;;;;;;;11.33;5.43;;;4.50;87.30;;;;;;5113650;28;20047;-67
2021/04/17 00:53:11;;;;;;;7.73;5.20;;;4.50;87.40;;;;;;5112802;28;20040;-67
2021/04/17 00:55:37;;;;;;;9.30;5.17;;;4.40;87.20;;;;;;5113644;28;20844;-67
2021/04/17 00:58:04;;;;;;;10.57;5.17;;;4.40;87.20;;;;;;5113144;28;20047;-66
2021/04/17 01:00:33;;;;;;;10.87;5.17;;;4.40;87.30;;;;;;5113041;28;20412;-66
2021/04/17 01:03:24;;;;;;;10.80;5.13;;;4.40;87.40;;;;;;5113088;28;20289;-66
2021/04/17 01:05:53;;;;;;;11.67;5.03;;;4.40;87.70;;;;;;5101272;28;20312;-66
2021/04/17 01:08:36;;;;;;;9.13;5.03;;;4.40;87.50;;;;;;5113101;28;20290;-66
2021/04/17 01:11:07;;;;;;;13.23;5.80;;;4.40;87.60;;;;;;5112997;27;20301;-66
2021/04/17 01:13:34;;;;;;;12.38;6.05;;;4.40;87.50;;;;;;5112565;28;20305;-66
2021/04/17 01:16:01;;;;;;;12.60;5.70;;;4.40;87.70;;;;;;5112830;28;20116;-66
2021/04/17 01:18:28;;;;;;;11.17;4.93;;;4.40;88.10;;;;;;5113368;28;20779;-66
2021/04/17 01:20:56;;;;;;;12.47;5.47;;;4.40;87.90;;;;;;5112212;28;20320;-66
2021/04/17 01:23:33;;;;;;;9.27;4.80;;;4.40;88.20;;;;;;5113205;28;20309;-67
2021/04/17 01:26:05;;;;;;;9.40;4.63;;;4.40;88.20;;;;;;5112657;28;20297;-66
2021/04/17 01:28:38;;;;;;;10.43;5.00;;;4.40;88.30;;;;;;5112429;28;20786;-66
2021/04/17 01:31:05;;;;;;;9.20;4.67;;;4.40;88.00;;;;;;5112428;28;20294;-66
2021/04/17 01:33:36;;;;;;;10.00;4.30;;;4.40;88.20;;;;;;5112666;28;20293;-67
2021/04/17 01:36:03;;;;;;;12.27;4.90;;;4.40;88.30;;;;;;5112072;28;20356;-66
2021/04/17 01:38:37;;;;;;;10.00;4.27;;;4.40;89.50;;;;;;5112755;28;20706;-66
2021/04/17 01:41:13;;;;;;;9.60;4.40;;;4.40;88.60;;;;;;5111456;28;20297;-66
2021/04/17 01:43:40;;;;;;;10.27;4.47;;;4.30;88.80;;;;;;5112792;28;20301;-66
2021/04/17 01:46:14;;;;;;;10.03;3.93;;;4.30;88.50;;;;;;5112275;28;20300;-66
2021/04/17 01:48:42;;;;;;;9.37;4.33;;;4.40;88.60;;;;;;5111944;28;20352;-66
2021/04/17 01:51:09;;;;;;;9.97;4.37;;;4.30;88.90;;;;;;5112277;28;20774;-66
2021/04/17 01:53:38;;;;;;;14.43;5.50;;;4.30;89.80;;;;;;5112587;28;20354;-66
2021/04/17 01:56:06;;;;;;;12.60;5.60;;;4.40;88.70;;;;;;5111215;28;20310;-66
2021/04/17 01:58:39;;;;;;;7.60;3.93;;;4.30;89.10;;;;;;5112208;28;20293;-66
2021/04/17 02:01:05;;;;;;;9.27;3.70;;;4.30;89.10;;;;;;5111599;28;20392;-66
2021/04/17 02:03:31;;;;;;;8.57;4.00;;;4.30;89.00;;;;;;5111581;28;20297;-66
2021/04/17 02:05:57;;;;;;;11.33;5.60;;;4.30;89.30;;;;;;5111517;28;20748;-66
2021/04/17 02:08:26;;;;;;;10.77;4.00;;;4.30;89.40;;;;;;5112223;28;20297;-66
2021/04/17 02:10:52;;;;;;;9.77;4.10;;;4.30;89.70;;;;;;5111060;28;20075;-66
2021/04/17 02:13:19;;;;;;;9.47;3.90;;;4.30;89.50;;;;;;5112035;28;20325;-66
2021/04/17 02:15:45;;;;;;;7.07;3.73;;;4.30;90.00;;;;;;5112082;28;20309;-66
2021/04/17 02:18:33;;;;;;;14.60;4.30;;;4.30;89.70;;;;;;5111166;28;20376;-66
2021/04/17 02:21:06;;;;;;;9.57;3.97;;;4.30;89.70;;;;;;5111516;28;20380;-66
2021/04/17 02:23:33;;;;;;;8.77;3.60;;;4.30;89.70;;;;;;5111031;28;20316;-66
2021/04/17 02:26:00;;;;;;;7.20;3.37;;;4.30;89.60;;;;;;5111690;28;20301;-66
2021/04/17 02:28:27;;;;;;;14.40;3.73;;;4.30;89.70;;;;;;5112104;28;20294;-66
2021/04/17 02:30:53;;;;;;;10.23;4.00;;;4.30;89.40;;;;;;5111055;28;20634;-66
2021/04/17 02:33:19;;;;;;;8.57;3.73;;;4.30;89.60;;;;;;5111652;28;20801;-67
2021/04/17 02:35:45;;;;;;;10.83;3.50;;;4.30;89.30;;;;;;5111673;28;20313;-66
2021/04/17 02:38:11;;;;;;;8.43;3.33;;;4.30;89.40;;;;;;5110916;28;20078;-66
2021/04/17 02:40:37;;;;;;;7.07;3.83;;;4.30;89.20;;;;;;5111955;28;20040;-66
2021/04/17 02:43:04;;;;;;;10.23;3.60;;;4.30;89.10;;;;;;5111405;28;20358;-66
2021/04/17 02:45:29;;;;;;;9.10;4.03;;;4.30;89.10;;;;;;5111358;28;20684;-66
2021/04/17 02:47:55;;;;;;;5.00;3.40;;;4.30;89.20;;;;;;5111219;28;20069;-66
2021/04/17 02:50:21;;;;;;;10.43;4.53;;;4.30;89.20;;;;;;5111769;28;20460;-66
2021/04/17 02:52:49;;;;;;;10.37;3.60;;;4.20;89.40;;;;;;5110736;28;20047;-67
2021/04/17 02:55:16;;;;;;;10.83;3.43;;;4.20;89.60;;;;;;5111576;28;20101;-67
2021/04/17 02:57:42;;;;;;;12.90;3.87;;;4.30;89.30;;;;;;5111624;28;20832;-67
2021/04/17 03:00:09;;;;;;;8.53;3.40;;;4.30;89.10;;;;;;5110823;28;20294;-67
2021/04/17 03:02:35;;;;;;;7.37;3.00;;;4.20;89.20;;;;;;5111777;28;20047;-67
2021/04/17 03:05:01;;;;;;;8.57;3.50;;;4.20;89.10;;;;;;5110910;28;20381;-68
2021/04/17 03:07:27;;;;;;;6.53;3.40;;;4.20;89.20;;;;;;5111551;28;20071;-67
2021/04/17 03:09:53;;;;;;;8.13;3.30;;;4.20;89.30;;;;;;5111603;28;20706;-67
2021/04/17 03:12:18;;;;;;;10.20;3.70;;;4.20;89.20;;;;;;5112976;28;20103;-67
2021/04/17 03:14:44;;;;;;;9.53;4.07;;;4.20;89.00;;;;;;5115721;28;20405;-67
2021/04/17 03:17:09;;;;;;;7.97;3.20;;;4.20;89.20;;;;;;5115415;28;20420;-67
2021/04/17 03:19:35;;;;;;;7.47;4.13;;;4.20;89.40;;;;;;5114997;28;20044;-67
2021/04/17 03:22:02;;;;;;;9.00;3.57;;;4.20;89.50;;;;;;5115301;28;20128;-67
2021/04/17 03:24:27;;;;;;;6.20;3.37;;;4.20;89.30;;;;;;5115701;28;20069;-67
2021/04/17 03:26:53;;;;;;;8.30;3.13;;;4.20;89.40;;;;;;5114664;28;20380;-67
2021/04/17 03:29:19;;;;;;;11.07;3.73;;;4.10;89.10;;;;;;5115482;28;20483;-67
2021/04/17 03:31:45;;;;;;;6.80;3.20;;;4.10;88.90;;;;;;5115352;28;20072;-67
2021/04/17 03:34:11;;;;;;;7.93;3.17;;;4.10;89.40;;;;;;5114317;28;20051;-67
2021/04/17 03:36:37;;;;;;;9.03;3.20;;;4.10;89.40;;;;;;5115597;28;20366;-67
2021/04/17 03:39:04;;;;;;;8.20;3.50;;;4.00;89.40;;;;;;5114954;28;20752;-68
2021/04/17 03:41:29;;;;;;;10.33;3.90;;;4.00;89.60;;;;;;5114717;28;20100;-67
2021/04/17 03:43:56;;;;;;;8.70;3.27;;;4.00;89.60;;;;;;5114634;28;20716;-67
2021/04/17 03:46:22;;;;;;;5.67;3.23;;;4.00;89.60;;;;;;5114448;28;20317;-67
2021/04/17 03:48:48;;;;;;;8.90;3.07;;;4.00;89.90;;;;;;5113404;28;20060;-68
2021/04/17 03:51:14;;;;;;;8.03;3.97;;;4.00;89.70;;;;;;5114405;28;20296;-67
2021/04/17 03:53:40;;;;;;;8.97;3.00;;;4.10;89.90;;;;;;5114882;28;20289;-67
2021/04/17 03:56:06;;;;;;;13.47;4.20;;;4.10;89.90;;;;;;5113934;28;20639;-66
2021/04/17 03:58:32;;;;;;;9.60;3.53;;;4.00;90.00;;;;;;5114604;28;20292;-66
2021/04/17 04:00:58;;;;;;;9.83;3.97;;;4.00;90.00;;;;;;5113778;28;20492;-66
2021/04/17 04:03:23;;;;;;;10.27;4.23;;;4.00;90.00;;;;;;5113494;28;20051;-66
2021/04/17 04:05:49;;;;;;;11.10;3.53;;;4.00;90.00;;;;;;5114324;28;20032;-67
2021/04/17 04:08:14;;;;;;;8.27;4.20;;;3.90;90.00;;;;;;5114386;28;20051;-66
2021/04/17 04:10:40;;;;;;;7.93;3.57;;;3.90;90.10;;;;;;5113545;28;20096;-66
2021/04/17 04:13:06;;;;;;;16.03;4.17;;;3.90;90.10;;;;;;5114048;28;20036;-66
2021/04/17 04:15:31;;;;;;;10.03;4.03;;;3.90;90.20;;;;;;5113436;28;20079;-66
2021/04/17 04:17:57;;;;;;;12.50;4.10;;;3.90;90.30;;;;;;5113498;28;20416;-66
2021/04/17 04:20:23;;;;;;;11.73;3.50;;;3.90;90.30;;;;;;5108776;28;20043;-66
2021/04/17 04:22:48;;;;;;;10.23;4.83;;;3.90;90.40;;;;;;5112528;28;20044;-67
2021/04/17 04:25:14;;;;;;;10.37;3.93;;;3.90;90.60;;;;;;5112606;28;20075;-66
2021/04/17 04:27:40;;;;;;;13.60;4.03;;;4.00;90.40;;;;;;5112941;28;20104;-67
2021/04/17 04:30:08;;;;;;;8.03;3.83;;;4.00;90.40;;;;;;5112393;28;20328;-67
2021/04/17 04:32:34;;;;;;;10.27;4.20;;;4.00;90.40;;;;;;5112566;28;20411;-67
2021/04/17 04:34:59;;;;;;;10.30;3.30;;;4.00;90.30;;;;;;5112329;28;20293;-67
2021/04/17 04:37:25;;;;;;;7.50;3.80;;;4.10;90.30;;;;;;5112348;28;20399;-67
2021/04/17 04:39:51;;;;;;;10.00;4.07;;;4.10;90.50;;;;;;5112623;28;20535;-67
2021/04/17 04:42:17;;;;;;;12.97;4.23;;;4.20;90.40;;;;;;5112593;28;20488;-67
2021/04/17 04:44:43;;;;;;;9.63;3.77;;;4.20;90.30;;;;;;5112059;28;20097;-67
2021/04/17 04:47:08;;;;;;;12.67;3.70;;;4.20;90.30;;;;;;5112277;28;20293;-67
2021/04/17 04:49:34;;;;;;;11.23;3.70;;;4.20;90.40;;;;;;5112453;28;20047;-67
2021/04/17 04:52:00;;;;;;;14.47;4.93;;;4.20;90.30;;;;;;5111246;28;20313;-67
2021/04/17 04:54:25;;;;;;;10.57;4.13;;;4.30;90.40;;;;;;5112587;28;20131;-67
2021/04/17 04:56:51;;;;;;;10.43;4.30;;;4.30;90.40;;;;;;5112267;28;20044;-67
2021/04/17 04:59:17;;;;;;;16.67;4.47;;;4.40;90.40;;;;;;5111411;28;20474;-67
2021/04/17 05:01:43;;;;;;;13.63;4.67;;;4.40;90.50;;;;;;5112061;28;20068;-67
2021/04/17 05:04:08;;;;;;;13.57;4.20;;;4.50;90.60;;;;;;5112013;28;20042;-67
2021/04/17 05:06:34;;;;;;;14.63;4.73;;;4.60;90.60;;;;;;5111731;28;20071;-67
2021/04/17 05:09:00;;;;;;;11.97;3.80;;;4.60;90.70;;;;;;5111576;28;20412;-67
2021/04/17 05:11:25;;;;;;;13.57;4.20;;;4.60;90.60;;;;;;5112292;28;20048;-67
2021/04/17 05:13:52;;;;;;;13.63;4.33;;;4.70;90.70;;;;;;5111187;28;20361;-67
2021/04/17 05:16:17;;;;;;;10.90;4.23;;;4.70;90.60;;;;;;5111537;28;20097;-67
2021/04/17 05:18:43;;;;;;;15.57;4.40;;;4.80;90.60;;;;;;5111316;28;20297;-67
2021/04/17 05:21:09;;;;;;;16.13;4.50;;;4.90;90.70;;;;;;5111646;28;20039;-67
2021/04/17 05:23:35;;;;;;;15.47;4.70;;;4.90;90.50;;;;;;5093234;28;524868;-67
2021/04/17 05:26:01;;;;;;;10.93;4.87;;;4.90;90.80;;;;;;5111690;28;20154;-67
2021/04/17 05:28:26;;;;;;;14.80;4.53;;;5.00;90.90;;;;;;5112722;28;20717;-67
2021/04/17 05:30:52;;;;;;;14.93;3.90;;;5.00;90.90;;;;;;5112324;28;20286;-67
2021/04/17 05:33:18;;;;;;;27.03;5.23;;;5.10;90.90;;;;;;5111731;28;20058;-67
2021/04/17 05:35:44;;;;;;;16.67;5.03;;;5.10;91.10;;;;;;5111346;28;20476;-67
2021/04/17 05:38:09;;;;;;;24.30;5.50;;;5.20;91.10;;;;;;5112090;28;20063;-67
2021/04/17 05:40:35;;;;;;;16.97;4.73;;;5.30;91.10;;;;;;5111716;28;20050;-67
2021/04/17 05:43:01;;;;;;;24.20;5.43;;;5.40;91.80;;;;;;5111761;28;20404;-67
2021/04/17 05:45:28;;;;;;;18.23;4.83;;;5.50;91.20;;;;;;5112251;28;20047;-67
2021/04/17 05:47:54;;;;;;;17.03;5.83;;;5.70;91.30;;;;;;5111062;28;20340;-67
2021/04/17 05:50:20;;;;;;;19.73;5.03;;;5.80;91.30;;;;;;5112294;28;20289;-67
2021/04/17 05:52:46;;;;;;;21.07;6.23;;;5.90;91.00;;;;;;5112124;28;20071;-67
2021/04/17 05:55:12;;;;;;;19.83;5.27;;;5.90;90.90;;;;;;5110806;28;20820;-67
2021/04/17 05:57:38;;;;;;;18.53;4.97;;;5.90;90.90;;;;;;5112021;28;20557;-67
2021/04/17 06:00:05;;;;;;;21.43;5.27;;;5.80;90.90;;;;;;5111393;28;20294;-66
2021/04/17 06:02:31;;;;;;;15.43;5.30;;;5.80;90.90;;;;;;5111340;28;20052;-67
2021/04/17 06:04:57;;;;;;;16.90;5.37;;;5.90;91.20;;;;;;5111235;28;20289;-67
2021/04/17 06:07:22;;;;;;;18.73;5.83;;;6.00;91.30;;;;;;5111728;28;20043;-67
2021/04/17 06:09:48;;;;;;;18.23;5.30;;;6.20;91.30;;;;;;5111417;28;20044;-67
2021/04/17 06:12:14;;;;;;;14.43;5.00;;;6.50;91.00;;;;;;5112120;28;20158;-67
2021/04/17 06:14:40;;;;;;;23.60;5.53;;;6.80;90.60;;;;;;5112033;28;20134;-67
2021/04/17 06:17:05;;;;;;;20.77;5.77;;;6.80;90.30;;;;;;5111186;28;20400;-67
2021/04/17 06:19:31;;;;;;;22.40;5.33;;;6.70;90.30;;;;;;5112228;28;20075;-67
2021/04/17 06:21:57;;;;;;;19.80;5.47;;;6.70;90.50;;;;;;5111418;28;20043;-67
2021/04/17 06:24:23;;;;;;;21.23;6.10;;;6.70;90.60;;;;;;5111262;28;20051;-67
2021/04/17 06:26:48;;;;;;;24.53;6.17;;;6.70;90.60;;;;;;5111949;28;20167;-67
2021/04/17 06:29:15;;;;;;;20.43;5.97;;;6.70;90.50;;;;;;5111053;28;20615;-67
2021/04/17 06:31:40;;;;;;;20.70;6.00;;;6.70;90.70;;;;;;5111457;28;20399;-67
2021/04/17 06:34:06;;;;;;;23.40;5.53;;;6.70;90.70;;;;;;5111057;28;20294;-66
2021/04/17 06:36:35;;;;;;;22.47;6.43;;;6.80;90.80;;;;;;5111804;28;20545;-67
2021/04/17 06:39:01;;;;;;;18.10;5.50;;;6.90;90.70;;;;;;5111839;28;20576;-68
2021/04/17 06:41:32;;;;;;;21.80;6.43;;;6.90;90.70;;;;;;5112494;28;20305;-67
2021/04/17 06:44:00;;;;;;;20.83;5.25;;;6.90;90.70;;;;;;5110545;28;20680;-68
2021/04/17 06:46:31;;;;;;;24.90;6.03;;;7.00;90.80;;;;;;5111441;28;20116;-68
2021/04/17 06:48:59;;;;;;;20.40;5.47;;;7.00;90.80;;;;;;5111411;28;20294;-68
2021/04/17 06:51:25;;;;;;;20.37;5.43;;;7.10;90.70;;;;;;5110019;28;20716;-67
2021/04/17 06:53:52;;;;;;;22.13;5.23;;;7.30;90.70;;;;;;5111304;28;20297;-67
2021/04/17 06:56:18;;;;;;;19.33;5.37;;;7.30;90.50;;;;;;5111329;28;20311;-67
2021/04/17 06:58:44;;;;;;;18.47;5.63;;;7.40;90.50;;;;;;5110841;28;20372;-68
2021/04/17 07:01:10;;;;;;;18.90;4.97;;;7.50;90.40;;;;;;5111644;28;20075;-67
2021/04/17 07:03:36;;;;;;;23.30;6.87;;;7.60;90.50;;;;;;5111110;28;20293;-67
2021/04/17 07:06:02;;;;;;;17.80;4.47;;;7.80;90.30;;;;;;5109938;28;20067;-67
2021/04/17 07:08:28;;;;;;;15.57;5.17;;;7.80;90.10;;;;;;5111280;28;20074;-67
2021/04/17 07:10:53;;;;;;;18.03;5.17;;;7.90;90.00;;;;;;5110617;28;20043;-68
2021/04/17 07:13:19;;;;;;;18.80;5.67;;;7.90;89.90;;;;;;5110434;28;20043;-67
2021/04/17 07:15:47;;;;;;;17.23;6.13;;;7.90;90.00;;;;;;5110425;28;20044;-67
2021/04/17 07:18:40;;;;;;;21.43;5.33;;;8.10;89.70;;;;;;5110411;28;20711;-67
2021/04/17 07:21:11;;;;;;;18.13;4.90;;;8.10;88.20;;;;;;5107992;28;20362;-67
2021/04/17 07:23:42;;;;;;;13.50;5.07;;;8.10;88.60;;;;;;5111028;28;20342;-67
2021/04/17 07:26:24;;;;;;;21.48;5.15;;;8.30;88.40;;;;;;5109365;28;20522;-67
2021/04/17 07:29:13;;;;;;;18.67;5.72;;;8.40;87.80;;;;;;5108555;28;20051;-67
2021/04/17 07:31:51;;;;;;;19.60;5.13;;;8.50;87.00;;;;;;5110026;28;20484;-67
2021/04/17 07:34:21;;;;;;;20.57;4.90;;;8.60;87.30;;;;;;5109037;28;20328;-67
2021/04/17 07:36:55;;;;;;;22.60;5.73;;;8.80;86.70;;;;;;5108040;28;20301;-67
2021/04/17 07:39:38;;;;;;;16.53;4.87;;;8.90;85.90;;;;;;5110329;28;20298;-67
2021/04/17 07:42:13;;;;;;;14.93;4.83;;;8.90;85.30;;;;;;5110123;28;20793;-68
2021/04/17 07:44:44;;;;;;;17.60;4.47;;;9.10;85.50;;;;;;5111068;28;20662;-67
2021/04/17 07:47:11;;;;;;;;;;;9.20;84.50;;;;;;5108390;28;20343;-67
2021/04/17 07:49:39;;;;;;;18.97;4.83;;;9.40;81.50;;;;;;5110422;28;19926;-67
2021/04/17 07:52:11;;;;;;;14.57;4.90;;;9.50;83.90;;;;;;5107313;28;20789;-68
2021/04/17 07:54:57;;;;;;;13.23;5.03;;;9.60;83.10;;;;;;5110235;28;20389;-68
2021/04/17 07:57:31;;;;;;;19.07;4.57;;;9.80;82.90;;;;;;5110960;28;20047;-68
2021/04/17 07:59:57;;;;;;;16.10;4.30;;;10.00;81.60;;;;;;5114141;28;20285;-68
2021/04/17 08:02:23;;;;;;;16.50;4.40;;;10.10;80.20;;;;;;5113696;28;20289;-67
2021/04/17 08:04:50;;;;;;;14.47;4.43;;;10.30;79.40;;;;;;5114106;28;20343;-68
2021/04/17 08:07:17;;;;;;;15.07;4.20;;;10.60;78.30;;;;;;5114051;28;20051;-68
2021/04/17 08:09:43;;;;;;;9.53;4.17;;;10.80;77.80;;;;;;5113304;28;20047;-68
2021/04/17 08:12:10;;;;;;;14.13;3.77;;;10.90;76.20;;;;;;5114022;28;20092;-68
2021/04/17 08:14:36;;;;;;;11.03;4.60;;;11.00;75.30;;;;;;5113700;28;20047;-68
2021/04/17 08:17:02;;;;;;;9.63;3.93;;;11.30;75.20;;;;;;5113225;28;20044;-68
2021/04/17 08:19:28;;;;;;;12.90;3.57;;;11.50;74.10;;;;;;5114115;28;20130;-68
2021/04/17 08:21:54;;;;;;;13.00;4.00;;;11.60;72.10;;;;;;5113187;28;20217;-66
2021/04/17 08:24:25;;;;;;;9.87;4.23;;;11.50;72.10;;;;;;5113792;28;20092;-65
2021/04/17 08:26:53;;;;;;;12.00;3.38;;;11.40;69.60;;;;;;5111207;28;20528;-66
2021/04/17 08:29:41;;;;;;;10.23;3.70;;;11.40;69.00;;;;;;5112803;28;20046;-66
2021/04/17 08:32:21;;;;;;;12.43;4.20;;;11.70;67.30;;;;;;5110926;28;20051;-67
2021/04/17 08:34:56;;;;;;;8.10;3.57;;;11.80;68.80;;;;;;5110651;28;20067;-67
2021/04/17 08:37:24;;;;;;;10.37;4.27;;;12.00;66.90;;;;;;5112785;28;20039;-67
2021/04/17 08:39:53;;;;;;;9.77;3.70;;;12.00;67.60;;;;;;5112978;28;20051;-67
2021/04/17 08:42:43;;;;;;;16.63;4.00;;;11.90;66.30;;;;;;5111452;28;20047;-67
2021/04/17 08:45:16;;;;;;;10.37;4.00;;;11.60;62.20;;;;;;5110722;28;20077;-69
2021/04/17 08:47:48;;;;;;;10.33;4.80;;;11.40;65.40;;;;;;5112751;28;20043;-70
2021/04/17 08:50:35;;;;;;;10.75;3.90;;;11.10;66.80;;;;;;5111997;28;20052;-69
2021/04/17 08:53:10;;;;;;;10.23;4.10;;;11.00;65.90;;;;;;5111598;28;20075;-69
2021/04/17 08:55:35;;;;;;;11.17;3.90;;;11.30;64.80;;;;;;5111799;28;20353;-69
2021/04/17 08:58:27;;;;;;;12.53;3.90;;;11.60;65.40;;;;;;5110158;28;20069;-69
2021/04/17 09:00:53;;;;;;;;;;;11.60;64.30;;;;;;5108768;28;20511;-69
2021/04/17 09:03:42;;;;;;;9.63;3.90;;;11.70;62.60;;;;;;5112373;28;19920;-68
2021/04/17 09:06:24;;;;;;;8.17;3.90;;;11.80;62.30;;;;;;5109877;28;20054;-70
2021/04/17 09:09:15;;;;;;;9.20;3.37;;;11.80;64.50;;;;;;5108843;28;20100;-70
2021/04/17 09:11:44;;;;;;;11.70;4.47;;;11.70;62.30;;;;;;5110980;28;20481;-70
2021/04/17 09:14:28;;;;;;;8.97;3.80;;;11.60;64.50;;;;;;5110088;28;20489;-70
2021/04/17 09:17:02;;;;;;;12.00;4.23;;;11.70;62.10;;;;;;5110894;28;20043;-70
2021/04/17 09:19:44;;;;;;;11.63;3.93;;;11.90;64.30;;;;;;5109585;28;20105;-69
2021/04/17 09:22:25;;;;;;;9.57;3.73;;;11.90;60.30;;;;;;5112580;28;20509;-70
2021/04/17 09:24:58;;;;;;;6.80;3.43;;;11.80;59.50;;;;;;5112433;28;20063;-70
2021/04/17 09:27:38;;;;;;;10.10;4.90;;;11.60;60.90;;;;;;5113068;28;20043;-70
2021/04/17 09:30:05;;;;;;;13.63;4.40;;;11.70;61.40;;;;;;5112110;28;20055;-69
2021/04/17 09:32:31;;;;;;;7.13;3.67;;;11.80;62.50;;;;;;5112238;28;20087;-69
2021/04/17 09:34:58;;;;;;;9.60;3.53;;;11.80;61.20;;;;;;5112237;28;20123;-67
2021/04/17 09:37:31;;;;;;;7.60;3.50;;;11.60;60.30;;;;;;5112969;28;20120;-67
2021/04/17 09:39:57;;;;;;;8.60;3.43;;;11.50;60.40;;;;;;5111661;28;20043;-68
2021/04/17 09:42:36;;;;;;;9.77;3.47;;;11.50;60.20;;;;;;5113267;28;20061;-67
2021/04/17 09:45:06;;;;;;;9.03;4.40;;;11.60;60.00;;;;;;5112057;28;20495;-68
2021/04/17 09:47:33;;;;;;;8.03;3.00;;;11.60;60.60;;;;;;5112130;28;20055;-68
2021/04/17 09:49:59;;;;;;;8.97;2.90;;;11.60;59.40;;;;;;5111900;28;20117;-67
2021/04/17 09:52:26;;;;;;;9.37;4.00;;;11.60;57.70;;;;;;5112677;28;20055;-68
2021/04/17 09:55:00;;;;;;;7.27;2.90;;;11.50;57.00;;;;;;5111605;28;20048;-68
2021/04/17 09:57:27;;;;;;;6.57;2.67;;;11.50;57.30;;;;;;5112104;28;20130;-69
2021/04/17 09:59:57;;;;;;;7.60;3.20;;;11.60;56.90;;;;;;5111897;28;20043;-68
2021/04/17 10:02:38;;;;;;;5.83;2.53;;;11.50;56.60;;;;;;5111367;28;20100;-68
2021/04/17 10:05:04;;;;;;;8.17;2.50;;;11.40;55.60;;;;;;5111634;28;20052;-68
2021/04/17 10:07:40;;;;;;;6.47;2.80;;;11.30;55.10;;;;;;5111298;28;20047;-68
2021/04/17 10:10:07;;;;;;;8.67;2.77;;;11.10;54.70;;;;;;5111865;28;20047;-68
2021/04/17 10:12:45;;;;;;;7.63;2.70;;;11.10;55.90;;;;;;5108750;28;20101;-68
2021/04/17 10:15:26;;;;;;;5.17;2.30;;;11.00;55.10;;;;;;5106151;28;20051;-68
2021/04/17 10:17:55;;;;;;;7.35;2.80;;;11.00;55.40;;;;;;5107760;28;20308;-69
2021/04/17 10:20:21;;;;;;;9.33;3.53;;;11.10;55.40;;;;;;5108091;28;20109;-69
2021/04/17 10:22:54;;;;;;;6.47;2.43;;;11.10;55.40;;;;;;5107959;28;20035;-69
2021/04/17 10:25:45;;;;;;;7.03;2.53;;;11.20;55.20;;;;;;5108298;28;20063;-69
2021/04/17 10:28:20;;;;;;;8.77;2.90;;;11.30;55.90;;;;;;5107159;28;20067;-68
2021/04/17 10:30:49;;;;;;;8.37;2.50;;;11.30;54.00;;;;;;5108066;28;20486;-69
2021/04/17 10:33:33;;;;;;;5.03;2.20;;;11.40;54.80;;;;;;5107954;28;20092;-69
2021/04/17 10:36:02;;;;;;;6.90;2.60;;;11.50;54.60;;;;;;5107345;28;20047;-68
2021/04/17 10:38:32;;;;;;;8.47;3.07;;;11.50;53.70;;;;;;5108355;28;20055;-69
2021/04/17 10:41:00;;;;;;;6.97;2.43;;;11.60;54.50;;;;;;5107758;28;20044;-68
2021/04/17 10:43:27;;;;;;;6.80;2.90;;;11.60;54.10;;;;;;5107332;28;20138;-68
2021/04/17 10:46:05;;;;;;;7.27;3.60;;;11.70;54.30;;;;;;5108188;28;20089;-68
2021/04/17 10:48:45;;;;;;;8.20;2.93;;;11.70;54.70;;;;;;5106777;28;20055;-67
2021/04/17 10:51:13;;;;;;;9.50;2.93;;;11.80;55.00;;;;;;5107200;28;20397;-67
2021/04/17 10:53:47;;;;;;;9.43;3.00;;;12.00;54.80;;;;;;5108137;28;20048;-68
2021/04/17 10:56:18;;;;;;;9.43;2.70;;;12.00;53.80;;;;;;5108520;28;20116;-67
2021/04/17 10:58:46;;;;;;;8.68;3.03;;;12.10;53.90;;;;;;5107837;28;20530;-68
2021/04/17 11:01:14;;;;;;;7.43;2.53;;;12.10;54.30;;;;;;5107602;28;20517;-68
2021/04/17 11:03:48;;;;;;;8.43;2.70;;;12.20;54.30;;;;;;5107211;28;20048;-68
2021/04/17 11:06:14;;;;;;;5.80;3.40;;;12.20;53.60;;;;;;5108217;28;20138;-68
2021/04/17 11:08:41;;;;;;;8.57;3.23;;;12.20;53.30;;;;;;5107944;28;20055;-71
2021/04/17 11:11:12;;;;;;;7.57;3.00;;;12.20;53.20;;;;;;5107176;28;20075;-71
2021/04/17 11:13:43;;;;;;;8.73;3.08;;;12.10;53.00;;;;;;5108210;28;20488;-71
2021/04/17 11:16:14;;;;;;;6.17;2.50;;;12.00;51.70;;;;;;5107696;28;20059;-71
2021/04/17 11:18:44;;;;;;;9.45;3.55;;;11.90;52.00;;;;;;5107303;28;20500;-71
2021/04/17 11:21:12;;;;;;;7.27;3.30;;;12.10;52.00;;;;;;5107110;28;20039;-71
2021/04/17 11:23:48;;;;;;;6.73;2.77;;;12.10;51.90;;;;;;5108348;28;20058;-69
2021/04/17 11:26:24;;;;;;;7.77;2.50;;;12.20;51.50;;;;;;5107034;28;20059;-74
2021/04/17 11:28:51;;;;;;;5.70;2.60;;;12.20;51.30;;;;;;5107816;28;20096;-69
2021/04/17 11:31:22;;;;;;;6.80;2.83;;;12.20;50.00;;;;;;5106694;28;20134;-70
2021/04/17 11:33:50;;;;;;;6.05;2.53;;;12.20;50.40;;;;;;5110031;28;20055;-68
2021/04/17 11:36:16;;;;;;;6.50;3.03;;;12.30;50.00;;;;;;5111374;28;20058;-70
2021/04/17 11:38:42;;;;;;;6.87;3.17;;;12.40;49.50;;;;;;5110562;28;20040;-71
2021/04/17 11:41:08;;;;;;;5.57;2.77;;;12.40;49.40;;;;;;5111397;27;20043;-67
2021/04/17 11:43:34;;;;;;;9.10;2.87;;;12.50;50.00;;;;;;5111979;28;20126;-66
2021/04/17 11:46:00;;;;;;;6.17;2.80;;;12.50;50.30;;;;;;5110362;28;20134;-66
2021/04/17 11:48:26;;;;;;;5.37;2.10;;;12.50;48.40;;;;;;5111531;28;20131;-67
2021/04/17 11:50:51;;;;;;;9.10;2.63;;;12.40;48.50;;;;;;5111169;28;20065;-69
2021/04/17 11:53:20;;;;;;;4.57;2.33;;;12.20;48.70;;;;;;5110416;28;20059;-69
2021/04/17 11:55:48;;;;;;;3.80;2.20;;;12.10;48.90;;;;;;5111123;28;20043;-69
2021/04/17 11:58:14;;;;;;;8.17;2.80;;;11.90;48.60;;;;;;5111026;28;20052;-70
2021/04/17 12:00:40;;;;;;;6.33;3.03;;;11.80;49.20;;;;;;5110869;28;20048;-70
2021/04/17 12:03:05;;;;;;;6.87;2.53;;;11.80;49.30;;;;;;5110776;28;20510;-69
2021/04/17 12:05:31;;;;;;;6.40;2.50;;;11.80;49.80;;;;;;5111168;28;20105;-68
2021/04/17 12:07:57;;;;;;;4.80;2.30;;;11.70;49.60;;;;;;5109778;28;20458;-70
2021/04/17 12:10:22;;;;;;;5.50;2.27;;;11.70;49.80;;;;;;5111490;28;20130;-71
2021/04/17 12:12:48;;;;;;;4.20;2.40;;;11.90;49.60;;;;;;5110760;28;20048;-71
2021/04/17 12:15:18;;;;;;;6.53;2.43;;;12.10;48.70;;;;;;5109591;28;20119;-71
2021/04/17 12:17:44;;;;;;;9.40;2.47;;;12.30;48.10;;;;;;5110654;28;20043;-71
2021/04/17 12:20:10;;;;;;;5.03;2.40;;;12.20;47.50;;;;;;5110998;28;20051;-71
2021/04/17 12:22:37;;;;;;;5.50;2.50;;;12.20;48.10;;;;;;5109793;28;20043;-70
2021/04/17 12:25:04;;;;;;;7.27;2.70;;;12.30;48.30;;;;;;5109910;28;20156;-70
2021/04/17 12:27:30;;;;;;;6.90;2.43;;;12.40;47.20;;;;;;5110931;28;20039;-70
2021/04/17 12:29:58;;;;;;;5.97;2.47;;;12.40;47.70;;;;;;5109877;28;20070;-71
2021/04/17 12:32:26;;;;;;;3.90;2.70;;;12.40;46.70;;;;;;5111103;28;20412;-70
2021/04/17 12:34:52;;;;;;;6.03;2.70;;;12.50;47.20;;;;;;5109450;28;20492;-70
2021/04/17 12:37:18;;;;;;;6.80;2.73;;;12.50;46.70;;;;;;5110618;28;20054;-70
2021/04/17 12:39:44;;;;;;;6.03;2.40;;;12.60;46.60;;;;;;5110302;28;20138;-71
2021/04/17 12:42:09;;;;;;;5.47;2.37;;;12.60;45.80;;;;;;5109362;28;20048;-70
2021/04/17 12:44:35;;;;;;;4.77;2.80;;;12.50;45.50;;;;;;5110033;28;20178;-71
2021/04/17 12:47:01;;;;;;;4.37;2.17;;;12.50;45.40;;;;;;5110415;28;20051;-71
2021/04/17 12:49:26;;;;;;;7.43;2.70;;;12.40;45.60;;;;;;5109518;28;20055;-70
2021/04/17 12:51:52;;;;;;;5.77;2.23;;;12.20;45.80;;;;;;5110135;28;20420;-70
2021/04/17 12:54:18;;;;;;;7.10;2.73;;;12.10;46.00;;;;;;5110520;27;20077;-71
2021/04/17 12:56:44;;;;;;;6.80;2.90;;;12.00;46.20;;;;;;5109146;28;20047;-70